| time (UTC) | temp C | wind direction | speed KPH | gust KPH | rain 1hr cm | rain 24hr cm | rain mn cm | humidity % | barometer mb |
| 20260507161655 | 14 | 205 | 4.8 | 4.8 | 0.00 | 0.00 | 0.00 | 43 | 1006.9 |
| 20260507161151 | 14 | 311 | 3.2 | 4.8 | 0.00 | 0.00 | 0.00 | 46 | 1006.9 |
| 20260507160647 | 14 | 146 | 4.8 | 4.8 | 0.00 | 0.00 | 0.00 | 44 | 1007.0 |
| 20260507160144 | 13 | 234 | 4.8 | 4.8 | 0.00 | 0.00 | 0.00 | 47 | 1007.2 |
| 20260507155640 | 14 | 335 | 4.8 | 9.7 | 0.00 | 0.00 | 0.00 | 44 | 1006.9 |
| 20260507155137 | 14 | 316 | 3.2 | 3.2 | 0.00 | 0.00 | 0.00 | 47 | 1007.0 |
| 20260507154633 | 13 | 319 | 4.8 | 8.0 | 0.00 | 0.00 | 0.00 | 43 | 1007.0 |
| 20260507154131 | 13 | 332 | 3.2 | 8.0 | 0.00 | 0.00 | 0.00 | 50 | 1007.2 |
| 20260507153627 | 13 | 166 | 4.8 | 4.8 | 0.00 | 0.00 | 0.00 | 46 | 1006.9 |
| 20260507153124 | 13 | 321 | 3.2 | 4.8 | 0.00 | 0.00 | 0.00 | 46 | 1007.2 |
| 20260507152620 | 13 | 325 | 1.6 | 1.6 | 0.00 | 0.00 | 0.00 | 51 | 1007.5 |
| 20260507152116 | 13 | 280 | 4.8 | 4.8 | 0.00 | 0.00 | 0.00 | 49 | 1007.3 |
| 20260507151612 | 13 | 278 | 3.2 | 3.2 | 0.00 | 0.00 | 0.00 | 51 | 1007.5 |
| 20260507151109 | 13 | 323 | 3.2 | 3.2 | 0.00 | 0.00 | 0.00 | 55 | 1007.6 |
| 20260507150607 | 13 | 167 | 8.0 | 12.9 | 0.00 | 0.00 | 0.00 | 56 | 1007.5 |
| 20260507145558 | 12 | 190 | 4.8 | 4.8 | 0.00 | 0.00 | 0.00 | 54 | 1007.6 |
| 20260507145056 | 13 | 328 | 1.6 | 1.6 | 0.00 | 0.00 | 0.00 | 62 | 1007.4 |
| 20260507144552 | 13 | 237 | 4.8 | 4.8 | 0.00 | 0.00 | 0.00 | 63 | 1007.6 |
| 20260507144050 | 13 | 188 | 6.4 | 8.0 | 0.00 | 0.00 | 0.00 | 61 | 1007.7 |
| 20260507143547 | 13 | 168 | 4.8 | 4.8 | 0.00 | 0.00 | 0.00 | 64 | 1007.5 |
| 20260507143044 | 13 | 97 | 3.2 | 3.2 | 0.00 | 0.00 | 0.00 | 64 | 1007.3 |
| 20260507142539 | 11 | 258 | 3.2 | 3.2 | 0.00 | 0.00 | 0.00 | 72 | 1007.5 |
| 20260507142036 | 12 | 124 | 4.8 | 4.8 | 0.00 | 0.00 | 0.00 | 66 | 1007.3 |
| 20260507141532 | 11 | 323 | 1.6 | 1.6 | 0.00 | 0.00 | 0.00 | 68 | 1007.4 |
| 20260507141029 | 12 | 300 | 3.2 | 3.2 | 0.00 | 0.00 | 0.00 | 69 | 1007.2 |
| 20260507140526 | 12 | 341 | 0.0 | 0.0 | 0.00 | 0.00 | 0.00 | 65 | 1007.3 |
| 20260507140024 | 12 | 254 | 4.8 | 4.8 | 0.00 | 0.00 | 0.00 | 67 | 1007.6 |
| 20260507135520 | 11 | 333 | 1.6 | 1.6 | 0.00 | 0.00 | 0.00 | 68 | 1007.3 |
| 20260507135018 | 12 | 183 | 4.8 | 8.0 | 0.00 | 0.00 | 0.00 | 68 | 1007.5 |
| 20260507134514 | 11 | 39 | 3.2 | 3.2 | 0.00 | 0.00 | 0.00 | 73 | 1007.7 |
| 20260507134010 | 11 | 206 | 4.8 | 4.8 | 0.00 | 0.00 | 0.00 | 70 | 1007.5 |
| 20260507133506 | 11 | 310 | 3.2 | 3.2 | 0.00 | 0.00 | 0.00 | 73 | 1007.6 |
| 20260507133005 | 11 | 303 | 4.8 | 4.8 | 0.00 | 0.00 | 0.00 | 72 | 1007.5 |
| 20260507132501 | 12 | 297 | 3.2 | 4.8 | 0.00 | 0.00 | 0.00 | 70 | 1007.4 |
| 20260507131957 | 11 | 201 | 4.8 | 4.8 | 0.00 | 0.00 | 0.00 | 70 | 1007.6 |
| 20260507131454 | 11 | 195 | 8.0 | 9.7 | 0.00 | 0.00 | 0.00 | 71 | 1007.7 |
| 20260507130951 | 11 | 304 | 3.2 | 3.2 | 0.00 | 0.00 | 0.00 | 73 | 1007.7 |
| 20260507130448 | 11 | 307 | 1.6 | 3.2 | 0.00 | 0.00 | 0.00 | 75 | 1007.5 |
| 20260507125946 | 11 | 283 | 3.2 | 3.2 | 0.00 | 0.00 | 0.00 | 73 | 1007.8 |
| 20260507125444 | 11 | 322 | 1.6 | 3.2 | 0.00 | 0.00 | 0.00 | 75 | 1007.7 |
| 20260507124941 | 11 | 318 | 1.6 | 3.2 | 0.00 | 0.00 | 0.00 | 75 | 1007.7 |
| 20260507124438 | 11 | 332 | 0.0 | 1.6 | 0.00 | 0.00 | 0.00 | 78 | 1007.7 |
| 20260507123936 | 10 | 283 | 1.6 | 3.2 | 0.00 | 0.00 | 0.00 | 77 | 1007.4 |
| 20260507123433 | 10 | 320 | 1.6 | 1.6 | 0.00 | 0.00 | 0.00 | 81 | 1007.8 |
| 20260507122929 | 10 | 305 | 3.2 | 4.8 | 0.00 | 0.00 | 0.00 | 79 | 1007.5 |
| 20260507122424 | 10 | 317 | 1.6 | 3.2 | 0.00 | 0.00 | 0.00 | 81 | 1007.7 |
| 20260507121921 | 10 | 290 | 3.2 | 3.2 | 0.00 | 0.00 | 0.00 | 81 | 1007.7 |
| 20260507121416 | 10 | 315 | 1.6 | 1.6 | 0.00 | 0.00 | 0.00 | 80 | 1007.7 |
| 20260507120913 | 9 | 308 | 3.2 | 3.2 | 0.00 | 0.00 | 0.00 | 83 | 1008.0 |
| 20260507120410 | 8 | 299 | 1.6 | 3.2 | 0.00 | 0.00 | 0.00 | 86 | 1008.2 |
| 20260507115906 | 8 | 337 | 0.0 | 0.0 | 0.00 | 0.00 | 0.00 | 86 | 1008.1 |
| 20260507115402 | 8 | 328 | 3.2 | 3.2 | 0.00 | 0.00 | 0.00 | 89 | 1008.0 |
| 20260507114858 | 8 | 306 | 1.6 | 3.2 | 0.00 | 0.00 | 0.00 | 88 | 1008.1 |
| 20260507114355 | 8 | 316 | 0.0 | 1.6 | 0.00 | 0.00 | 0.00 | 91 | 1007.8 |
| 20260507113852 | 7 | 333 | 0.0 | 0.0 | 0.00 | 0.00 | 0.00 | 90 | 1008.1 |
| 20260507113349 | 7 | 282 | 1.6 | 3.2 | 0.00 | 0.00 | 0.00 | 90 | 1007.6 |
| 20260507112846 | 7 | 330 | 3.2 | 3.2 | 0.00 | 0.00 | 0.00 | 91 | 1007.6 |
| 20260507112344 | 7 | 314 | 1.6 | 1.6 | 0.00 | 0.00 | 0.00 | 92 | 1007.7 |
| 20260507111841 | 7 | 325 | 1.6 | 1.6 | 0.00 | 0.00 | 0.00 | 92 | 1007.5 |
| 20260507111338 | 7 | 326 | 1.6 | 1.6 | 0.00 | 0.00 | 0.00 | 92 | 1007.8 |
| 20260507110834 | 7 | 306 | 3.2 | 3.2 | 0.00 | 0.00 | 0.00 | 93 | 1007.8 |
| 20260507110330 | 7 | 320 | 0.0 | 1.6 | 0.00 | 0.00 | 0.00 | 93 | 1007.7 |
| 20260507105827 | 6 | 302 | 3.2 | 3.2 | 0.00 | 0.00 | 0.00 | 94 | 1007.5 |
| 20260507105324 | 6 | 317 | 0.0 | 0.0 | 0.00 | 0.00 | 0.00 | 94 | 1007.5 |
| 20260507104821 | 6 | 323 | 1.6 | 1.6 | 0.00 | 0.00 | 0.00 | 94 | 1007.6 |
| 20260507104317 | 6 | 331 | 0.0 | 0.0 | 0.00 | 0.00 | 0.00 | 94 | 1007.5 |
| 20260507103813 | 6 | 334 | 0.0 | 0.0 | 0.00 | 0.00 | 0.00 | 94 | 1007.2 |
| 20260507103310 | 6 | 330 | 0.0 | 1.6 | 0.00 | 0.00 | 0.00 | 94 | 1007.3 |
| 20260507102806 | 6 | 335 | 0.0 | 0.0 | 0.00 | 0.00 | 0.00 | 94 | 1007.4 |
| 20260507102306 | 6 | 319 | 1.6 | 1.6 | 0.00 | 0.00 | 0.00 | 94 | 1007.4 |
| 20260507101759 | 6 | 321 | 1.6 | 1.6 | 0.00 | 0.00 | 0.00 | 94 | 1007.4 |
| 20260507101259 | 6 | 323 | 1.6 | 1.6 | 0.00 | 0.00 | 0.00 | 93 | 1007.3 |
| 20260507100757 | 6 | 326 | 1.6 | 1.6 | 0.00 | 0.00 | 0.00 | 94 | 1007.2 |
| 20260507100255 | 6 | 333 | 0.0 | 0.0 | 0.00 | 0.00 | 0.00 | 94 | 1006.9 |
| 20260507095753 | 7 | 334 | 0.0 | 0.0 | 0.00 | 0.00 | 0.00 | 93 | 1007.2 |
| 20260507095249 | 6 | 325 | 1.6 | 1.6 | 0.00 | 0.00 | 0.00 | 93 | 1007.4 |
| 20260507094746 | 6 | 311 | 3.2 | 3.2 | 0.00 | 0.00 | 0.00 | 93 | 1007.4 |
| 20260507094243 | 6 | 339 | 1.6 | 1.6 | 0.00 | 0.00 | 0.00 | 94 | 1006.9 |
| 20260507093740 | 7 | 316 | 1.6 | 1.6 | 0.00 | 0.00 | 0.00 | 94 | 1007.2 |
| 20260507093238 | 6 | 283 | 3.2 | 3.2 | 0.00 | 0.00 | 0.00 | 94 | 1007.4 |
| 20260507092736 | 7 | 299 | 3.2 | 3.2 | 0.00 | 0.00 | 0.00 | 94 | 1007.4 |
| 20260507092231 | 7 | 335 | 0.0 | 0.0 | 0.00 | 0.00 | 0.00 | 95 | 1007.6 |
| 20260507091728 | 7 | 332 | 0.0 | 0.0 | 0.00 | 0.00 | 0.00 | 95 | 1007.4 |
| 20260507091225 | 7 | 334 | 0.0 | 0.0 | 0.00 | 0.00 | 0.00 | 95 | 1007.4 |
| 20260507090720 | 7 | 330 | 0.0 | 0.0 | 0.00 | 0.00 | 0.00 | 95 | 1007.3 |
| 20260507090217 | 7 | 325 | 0.0 | 1.6 | 0.00 | 0.00 | 0.00 | 95 | 1007.5 |
| 20260507085714 | 7 | 326 | 1.6 | 1.6 | 0.00 | 0.00 | 0.00 | 95 | 1007.6 |
| 20260507085211 | 7 | 323 | 1.6 | 1.6 | 0.00 | 0.00 | 0.00 | 95 | 1007.7 |
| 20260507084708 | 7 | 305 | 3.2 | 3.2 | 0.00 | 0.00 | 0.00 | 94 | 1007.1 |
| 20260507084204 | 7 | 322 | 1.6 | 1.6 | 0.00 | 0.00 | 0.00 | 94 | 1007.1 |
| 20260507083702 | 7 | 318 | 0.0 | 1.6 | 0.00 | 0.00 | 0.00 | 94 | 1007.0 |
| 20260507083158 | 7 | 312 | 1.6 | 1.6 | 0.00 | 0.00 | 0.00 | 93 | 1007.4 |
| 20260507082654 | 7 | 333 | 0.0 | 0.0 | 0.00 | 0.00 | 0.00 | 93 | 1006.8 |
| 20260507082150 | 7 | 306 | 1.6 | 3.2 | 0.00 | 0.00 | 0.00 | 93 | 1007.2 |
| 20260507081647 | 7 | 316 | 1.6 | 1.6 | 0.00 | 0.00 | 0.00 | 93 | 1007.0 |
| 20260507081143 | 7 | 326 | 0.0 | 0.0 | 0.00 | 0.00 | 0.00 | 93 | 1007.1 |
| 20260507080640 | 7 | 332 | 0.0 | 0.0 | 0.00 | 0.00 | 0.00 | 93 | 1006.9 |
| 20260507080137 | 7 | 334 | 0.0 | 0.0 | 0.00 | 0.00 | 0.00 | 93 | 1006.6 |
| 20260507075631 | 7 | 332 | 1.6 | 1.6 | 0.00 | 0.00 | 0.00 | 93 | 1006.9 |
| 20260507075128 | 7 | 326 | 0.0 | 1.6 | 0.00 | 0.00 | 0.00 | 92 | 1007.0 |
| 20260507074624 | 7 | 294 | 3.2 | 3.2 | 0.00 | 0.00 | 0.00 | 92 | 1007.3 |
| 20260507074123 | 7 | 310 | 1.6 | 1.6 | 0.00 | 0.00 | 0.00 | 93 | 1006.9 |
| 20260507073619 | 7 | 329 | 1.6 | 1.6 | 0.00 | 0.00 | 0.00 | 92 | 1007.0 |
| 20260507073115 | 7 | 298 | 3.2 | 3.2 | 0.00 | 0.00 | 0.00 | 92 | 1006.8 |
| 20260507072613 | 7 | 323 | 1.6 | 1.6 | 0.00 | 0.00 | 0.00 | 92 | 1007.0 |
| 20260507072110 | 7 | 306 | 1.6 | 3.2 | 0.00 | 0.00 | 0.00 | 92 | 1006.7 |
| 20260507071607 | 7 | 314 | 1.6 | 1.6 | 0.00 | 0.00 | 0.00 | 92 | 1006.3 |
| 20260507071104 | 7 | 274 | 1.6 | 3.2 | 0.00 | 0.00 | 0.00 | 93 | 1006.7 |
| 20260507070601 | 7 | 301 | 1.6 | 1.6 | 0.00 | 0.00 | 0.00 | 93 | 1006.7 |
| 20260507070058 | 7 | 302 | 3.2 | 3.2 | 0.00 | 0.00 | 0.00 | 93 | 1006.7 |
| 20260507065554 | 7 | 294 | 3.2 | 4.8 | 0.00 | 0.00 | 0.00 | 93 | 1006.4 |
| 20260507065051 | 7 | 300 | 1.6 | 1.6 | 0.00 | 0.00 | 0.00 | 94 | 1006.6 |
| 20260507064549 | 7 | 298 | 1.6 | 1.6 | 0.00 | 0.00 | 0.00 | 95 | 1006.6 |
| 20260507064048 | 7 | 285 | 4.8 | 4.8 | 0.00 | 0.00 | 0.00 | 95 | 1006.4 |
| 20260507063544 | 7 | 338 | 0.0 | 1.6 | 0.00 | 0.00 | 0.00 | 96 | 1006.6 |
| 20260507063042 | 8 | 267 | 3.2 | 3.2 | 0.00 | 0.00 | 0.00 | 96 | 1006.8 |
| 20260507062538 | 8 | 308 | 1.6 | 3.2 | 0.00 | 0.00 | 0.00 | 96 | 1006.7 |
| 20260507062036 | 8 | 326 | 1.6 | 1.6 | 0.00 | 0.00 | 0.00 | 96 | 1006.3 |
| 20260507061533 | 8 | 325 | 1.6 | 1.6 | 0.00 | 0.00 | 0.00 | 96 | 1006.7 |
| 20260507061031 | 8 | 327 | 1.6 | 1.6 | 0.00 | 0.00 | 0.00 | 96 | 1007.0 |
| 20260507060529 | 8 | 320 | 1.6 | 1.6 | 0.00 | 0.00 | 0.00 | 96 | 1006.8 |
| 20260507060026 | 8 | 317 | 1.6 | 1.6 | 0.00 | 0.00 | 0.00 | 95 | 1006.5 |
| 20260507055526 | 8 | 320 | 1.6 | 1.6 | 0.00 | 0.00 | 0.00 | 95 | 1006.6 |
| 20260507055022 | 8 | 300 | 3.2 | 3.2 | 0.00 | 0.00 | 0.00 | 95 | 1006.8 |
| 20260507054519 | 8 | 295 | 3.2 | 3.2 | 0.00 | 0.00 | 0.00 | 95 | 1007.0 |
| 20260507054016 | 8 | 337 | 3.2 | 4.8 | 0.00 | 0.00 | 0.00 | 95 | 1006.6 |
| 20260507053514 | 8 | 297 | 1.6 | 1.6 | 0.00 | 0.00 | 0.00 | 96 | 1006.7 |
| 20260507053012 | 8 | 303 | 1.6 | 3.2 | 0.00 | 0.00 | 0.00 | 96 | 1006.8 |
| 20260507052509 | 8 | 320 | 1.6 | 1.6 | 0.00 | 0.00 | 0.00 | 96 | 1006.8 |
| 20260507052006 | 8 | 313 | 3.2 | 3.2 | 0.00 | 0.00 | 0.00 | 95 | 1006.7 |
| 20260507051504 | 8 | 322 | 3.2 | 3.2 | 0.00 | 0.00 | 0.00 | 95 | 1007.1 |
| 20260507051000 | 8 | 302 | 1.6 | 3.2 | 0.00 | 0.00 | 0.00 | 95 | 1006.8 |
| 20260507050456 | 8 | 297 | 4.8 | 4.8 | 0.00 | 0.00 | 0.00 | 95 | 1006.9 |
| 20260507045953 | 8 | 312 | 4.8 | 4.8 | 0.00 | 0.00 | 0.00 | 95 | 1007.0 |
| 20260507045450 | 8 | 292 | 4.8 | 4.8 | 0.00 | 0.00 | 0.00 | 95 | 1006.8 |
| 20260507044948 | 8 | 32 | 1.6 | 1.6 | 0.00 | 0.00 | 0.00 | 95 | 1006.8 |
| 20260507044444 | 8 | 302 | 3.2 | 3.2 | 0.00 | 0.00 | 0.00 | 95 | 1006.6 |
| 20260507043940 | 8 | 283 | 3.2 | 3.2 | 0.00 | 0.00 | 0.00 | 95 | 1006.6 |
| 20260507043436 | 8 | 303 | 3.2 | 3.2 | 0.00 | 0.00 | 0.00 | 96 | 1006.4 |
| 20260507042933 | 8 | 183 | 4.8 | 4.8 | 0.00 | 0.00 | 0.00 | 96 | 1006.4 |
| 20260507042430 | 8 | 335 | 0.0 | 1.6 | 0.00 | 0.00 | 0.00 | 96 | 1006.9 |
| 20260507041925 | 8 | 292 | 3.2 | 3.2 | 0.00 | 0.00 | 0.00 | 96 | 1007.1 |
| 20260507041422 | 9 | 192 | 4.8 | 4.8 | 0.00 | 0.00 | 0.00 | 96 | 1007.2 |
| 20260507040920 | 9 | 320 | 1.6 | 1.6 | 0.00 | 0.00 | 0.00 | 96 | 1006.9 |
| 20260507040415 | 8 | 302 | 3.2 | 3.2 | 0.00 | 0.00 | 0.00 | 96 | 1006.8 |
| 20260507035911 | 8 | 285 | 1.6 | 3.2 | 0.00 | 0.64 | 0.64 | 96 | 1006.8 |
| 20260507035408 | 9 | 303 | 1.6 | 3.2 | 0.00 | 0.64 | 0.64 | 97 | 1006.5 |
| 20260507034905 | 9 | 126 | 4.8 | 4.8 | 0.00 | 0.64 | 0.64 | 97 | 1006.7 |
| 20260507034401 | 10 | 334 | 1.6 | 1.6 | 0.00 | 0.64 | 0.64 | 97 | 1006.6 |
| 20260507033859 | 10 | 317 | 1.6 | 3.2 | 0.00 | 0.64 | 0.64 | 97 | 1006.4 |
| 20260507033358 | 10 | 308 | 3.2 | 4.8 | 0.00 | 0.64 | 0.64 | 97 | 1006.3 |
| 20260507032854 | 10 | 317 | 1.6 | 1.6 | 0.00 | 0.64 | 0.64 | 97 | 1006.4 |
| 20260507032351 | 10 | 294 | 3.2 | 3.2 | 0.00 | 0.64 | 0.64 | 97 | 1006.3 |
| 20260507031847 | 10 | 326 | 1.6 | 1.6 | 0.00 | 0.64 | 0.64 | 97 | 1006.1 |
| 20260507031344 | 10 | 317 | 1.6 | 1.6 | 0.00 | 0.64 | 0.64 | 97 | 1006.5 |
| 20260507030840 | 10 | 326 | 3.2 | 3.2 | 0.13 | 0.64 | 0.64 | 97 | 1006.4 |
| 20260507030338 | 11 | 320 | 4.8 | 4.8 | 0.30 | 0.64 | 0.64 | 97 | 1006.2 |
| 20260507025834 | 11 | 293 | 1.6 | 3.2 | 0.43 | 0.64 | 0.64 | 97 | 1006.2 |
| 20260507025332 | 11 | 307 | 1.6 | 1.6 | 0.48 | 0.58 | 0.58 | 97 | 1006.4 |
| 20260507024830 | 11 | 314 | 0.0 | 1.6 | 0.36 | 0.56 | 0.56 | 97 | 1006.5 |
| 20260507024327 | 11 | 288 | 3.2 | 3.2 | 0.00 | 0.51 | 0.51 | 97 | 1006.6 |
| 20260507023823 | 11 | 249 | 3.2 | 3.2 | 0.00 | 0.51 | 0.51 | 97 | 1006.3 |
| 20260507023319 | 11 | 332 | 1.6 | 3.2 | 0.13 | 0.51 | 0.51 | 97 | 1006.3 |
| 20260507022817 | 11 | 329 | 1.6 | 1.6 | 0.30 | 0.51 | 0.51 | 97 | 1006.1 |
| 20260507022313 | 12 | 309 | 1.6 | 1.6 | 0.18 | 0.48 | 0.48 | 97 | 1005.9 |
| 20260507021809 | 12 | 325 | 3.2 | 4.8 | 0.00 | 0.46 | 0.46 | 97 | 1006.0 |
| 20260507021305 | 12 | 304 | 1.6 | 3.2 | 0.00 | 0.46 | 0.46 | 97 | 1005.9 |
| 20260507020803 | 12 | 333 | 1.6 | 1.6 | 0.00 | 0.46 | 0.46 | 97 | 1005.8 |
| 20260507020259 | 12 | 310 | 1.6 | 1.6 | 0.00 | 0.46 | 0.46 | 97 | 1005.9 |
| 20260507015757 | 13 | 287 | 3.2 | 4.8 | 0.13 | 0.46 | 0.46 | 97 | 1005.7 |
| 20260507015254 | 13 | 323 | 0.0 | 1.6 | 0.13 | 0.46 | 0.46 | 96 | 1005.5 |
| 20260507014751 | 13 | 315 | 0.0 | 1.6 | 0.00 | 0.43 | 0.43 | 96 | 1005.5 |
| 20260507014247 | 13 | 328 | 3.2 | 3.2 | 0.00 | 0.43 | 0.43 | 96 | 1005.5 |
| 20260507013744 | 14 | 319 | 1.6 | 1.6 | 0.30 | 0.43 | 0.43 | 96 | 1005.2 |
| 20260507013241 | 14 | 312 | 1.6 | 1.6 | 0.79 | 0.43 | 0.43 | 96 | 1005.3 |
| 20260507012739 | 14 | 335 | 0.0 | 0.0 | 0.61 | 0.38 | 0.38 | 96 | 1005.2 |
| 20260507012234 | 14 | 337 | 0.0 | 1.6 | 0.30 | 0.33 | 0.33 | 96 | 1005.2 |
| 20260507011732 | 14 | 331 | 0.0 | 0.0 | 0.00 | 0.28 | 0.28 | 96 | 1005.0 |
| 20260507011228 | 14 | 337 | 0.0 | 0.0 | 0.00 | 0.28 | 0.28 | 96 | 1005.0 |
| 20260507010728 | 14 | 332 | 0.0 | 0.0 | 0.00 | 0.28 | 0.28 | 96 | 1005.0 |
| 20260507010224 | 14 | 337 | 0.0 | 0.0 | 0.00 | 0.28 | 0.28 | 96 | 1005.0 |
| 20260507005722 | 14 | 341 | 0.0 | 0.0 | 0.00 | 0.28 | 0.28 | 96 | 1005.1 |
| 20260507005218 | 14 | 334 | 0.0 | 0.0 | 0.00 | 0.28 | 0.28 | 96 | 1005.0 |
| 20260507004714 | 14 | 335 | 0.0 | 0.0 | 0.00 | 0.28 | 0.28 | 96 | 1005.1 |
| 20260507004212 | 14 | 332 | 0.0 | 0.0 | 0.00 | 0.28 | 0.28 | 96 | 1005.0 |
| 20260507003708 | 14 | 334 | 1.6 | 1.6 | 0.00 | 0.28 | 0.28 | 96 | 1005.0 |
| 20260507003203 | 14 | 22 | 3.2 | 4.8 | 0.00 | 0.28 | 0.28 | 96 | 1004.8 |
| 20260507002700 | 14 | 33 | 3.2 | 3.2 | 0.00 | 0.28 | 0.28 | 96 | 1004.7 |
| 20260507002156 | 14 | 335 | 0.0 | 0.0 | 0.00 | 0.28 | 0.28 | 96 | 1004.8 |
| 20260507001653 | 14 | 340 | 0.0 | 0.0 | 0.00 | 0.28 | 0.28 | 96 | 1004.7 |
| 20260507001150 | 14 | 333 | 1.6 | 1.6 | 0.00 | 0.28 | 0.28 | 96 | 1004.7 |
| 20260507000646 | 14 | 336 | 0.0 | 1.6 | 0.00 | 0.28 | 0.28 | 96 | 1004.8 |
| 20260507000142 | 14 | 336 | 0.0 | 0.0 | 0.00 | 0.28 | 0.28 | 96 | 1004.7 |
| 20260506235639 | 14 | 335 | 0.0 | 0.0 | 0.00 | 0.28 | 0.28 | 96 | 1004.7 |
| 20260506235140 | 14 | 343 | 0.0 | 0.0 | 0.00 | 0.28 | 0.28 | 96 | 1004.7 |
| 20260506234637 | 14 | 334 | 0.0 | 0.0 | 0.00 | 0.28 | 0.28 | 96 | 1004.6 |
| 20260506234134 | 14 | 332 | 1.6 | 1.6 | 0.00 | 0.28 | 0.28 | 96 | 1004.5 |
| 20260506233631 | 14 | 335 | 0.0 | 0.0 | 0.00 | 0.28 | 0.28 | 96 | 1004.4 |
| 20260506233128 | 14 | 331 | 0.0 | 1.6 | 0.00 | 0.28 | 0.28 | 95 | 1004.6 |
| 20260506232624 | 14 | 337 | 0.0 | 1.6 | 0.00 | 0.28 | 0.28 | 95 | 1004.4 |
| 20260506232120 | 14 | 333 | 1.6 | 1.6 | 0.00 | 0.28 | 0.28 | 95 | 1004.7 |
| 20260506231617 | 14 | 335 | 1.6 | 1.6 | 0.00 | 0.28 | 0.28 | 95 | 1004.6 |
| 20260506231115 | 14 | 331 | 1.6 | 3.2 | 0.00 | 0.28 | 0.28 | 95 | 1004.7 |
| 20260506230612 | 14 | 356 | 0.0 | 1.6 | 0.00 | 0.28 | 0.28 | 95 | 1004.4 |
| 20260506230109 | 14 | 337 | 1.6 | 1.6 | 0.00 | 0.28 | 0.28 | 95 | 1004.5 |
| 20260506225605 | 14 | 343 | 0.0 | 1.6 | 0.00 | 0.28 | 0.28 | 95 | 1004.9 |
| 20260506225102 | 14 | 164 | 3.2 | 4.8 | 0.00 | 0.28 | 0.28 | 95 | 1004.8 |
| 20260506224559 | 14 | 325 | 1.6 | 3.2 | 0.00 | 0.28 | 0.28 | 95 | 1004.7 |
| 20260506224055 | 14 | 334 | 0.0 | 0.0 | 0.00 | 0.28 | 0.28 | 95 | 1004.6 |
| 20260506223551 | 14 | 335 | 0.0 | 1.6 | 0.00 | 0.28 | 0.28 | 95 | 1004.8 |
| 20260506223048 | 14 | 330 | 1.6 | 3.2 | 0.00 | 0.28 | 0.28 | 95 | 1004.8 |
| 20260506222545 | 14 | 302 | 1.6 | 3.2 | 0.00 | 0.28 | 0.28 | 95 | 1004.8 |
| 20260506222041 | 14 | 333 | 0.0 | 1.6 | 0.00 | 0.28 | 0.28 | 95 | 1004.8 |
| 20260506221539 | 15 | 341 | 0.0 | 0.0 | 0.00 | 0.28 | 0.28 | 95 | 1005.0 |
| 20260506221037 | 15 | 356 | 1.6 | 3.2 | 0.00 | 0.28 | 0.28 | 95 | 1004.9 |
| 20260506220532 | 15 | 317 | 0.0 | 0.0 | 0.00 | 0.28 | 0.28 | 95 | 1004.9 |
| 20260506220028 | 15 | 332 | 0.0 | 0.0 | 0.00 | 0.28 | 0.28 | 95 | 1004.9 |
| 20260506215525 | 15 | 10 | 0.0 | 1.6 | 0.00 | 0.28 | 0.28 | 95 | 1005.0 |
| 20260506215020 | 15 | 327 | 1.6 | 1.6 | 0.00 | 0.28 | 0.28 | 95 | 1005.0 |
| 20260506214518 | 15 | 339 | 0.0 | 0.0 | 0.00 | 0.28 | 0.28 | 95 | 1005.0 |
| 20260506214015 | 15 | 330 | 1.6 | 1.6 | 0.00 | 0.28 | 0.28 | 95 | 1005.0 |
| 20260506213513 | 15 | 336 | 3.2 | 3.2 | 0.00 | 0.28 | 0.28 | 95 | 1004.9 |
| 20260506213010 | 15 | 326 | 0.0 | 1.6 | 0.00 | 0.28 | 0.28 | 95 | 1005.0 |
| 20260506212506 | 15 | 345 | 1.6 | 1.6 | 0.18 | 0.28 | 0.28 | 95 | 1005.0 |
| 20260506212001 | 15 | 338 | 1.6 | 3.2 | 0.18 | 0.28 | 0.28 | 95 | 1005.2 |
| 20260506211457 | 15 | 338 | 1.6 | 1.6 | 0.18 | 0.28 | 0.28 | 95 | 1005.2 |
| 20260506210955 | 15 | 326 | 1.6 | 1.6 | 0.00 | 0.25 | 0.25 | 95 | 1005.3 |
| 20260506210451 | 15 | 314 | 3.2 | 3.2 | 0.00 | 0.25 | 0.25 | 95 | 1005.2 |
| 20260506205948 | 15 | 356 | 1.6 | 1.6 | 0.00 | 0.25 | 0.25 | 95 | 1005.0 |
| 20260506205444 | 15 | 119 | 6.4 | 9.7 | 0.00 | 0.25 | 0.25 | 95 | 1005.2 |
| 20260506204940 | 15 | 215 | 3.2 | 3.2 | 0.00 | 0.25 | 0.25 | 95 | 1005.3 |
| 20260506204438 | 15 | 321 | 3.2 | 3.2 | 0.00 | 0.25 | 0.25 | 95 | 1005.4 |
| 20260506203935 | 15 | 345 | 1.6 | 3.2 | 0.18 | 0.25 | 0.25 | 95 | 1005.1 |
| 20260506203433 | 15 | 342 | 1.6 | 1.6 | 0.18 | 0.25 | 0.25 | 95 | 1005.3 |
| 20260506202929 | 15 | 26 | 3.2 | 3.2 | 0.18 | 0.25 | 0.25 | 95 | 1005.4 |
| 20260506202427 | 15 | 352 | 8.0 | 11.3 | 0.13 | 0.23 | 0.23 | 94 | 1005.6 |
| 20260506201923 | 15 | 342 | 1.6 | 1.6 | 0.13 | 0.23 | 0.23 | 94 | 1005.4 |
| 20260506201421 | 15 | 318 | 3.2 | 3.2 | 0.00 | 0.20 | 0.20 | 94 | 1005.6 |
| 20260506200917 | 15 | 268 | 1.6 | 1.6 | 0.18 | 0.20 | 0.20 | 94 | 1005.6 |
| 20260506200413 | 15 | 347 | 1.6 | 3.2 | 0.18 | 0.20 | 0.20 | 94 | 1005.6 |
| 20260506195910 | 15 | 335 | 0.0 | 1.6 | 0.00 | 0.18 | 0.18 | 94 | 1005.4 |
| 20260506195407 | 15 | 29 | 1.6 | 1.6 | 0.13 | 0.18 | 0.18 | 94 | 1005.7 |
| 20260506194904 | 15 | 28 | 3.2 | 3.2 | 0.13 | 0.18 | 0.18 | 93 | 1005.9 |
| 20260506194401 | 15 | 335 | 0.0 | 0.0 | 0.00 | 0.15 | 0.15 | 93 | 1005.8 |
| 20260506193858 | 15 | 334 | 3.2 | 3.2 | 0.00 | 0.15 | 0.15 | 93 | 1005.8 |
| 20260506193355 | 15 | 319 | 3.2 | 3.2 | 0.00 | 0.15 | 0.15 | 93 | 1005.9 |
| 20260506192851 | 15 | 353 | 1.6 | 3.2 | 0.18 | 0.15 | 0.15 | 92 | 1006.1 |
| 20260506192348 | 15 | 277 | 3.2 | 3.2 | 0.18 | 0.15 | 0.15 | 92 | 1006.0 |
| 20260506191845 | 16 | 41 | 3.2 | 3.2 | 0.00 | 0.13 | 0.13 | 92 | 1005.7 |
| 20260506191341 | 15 | 339 | 1.6 | 1.6 | 0.00 | 0.13 | 0.13 | 92 | 1005.7 |
| 20260506190838 | 16 | 329 | 1.6 | 1.6 | 0.00 | 0.13 | 0.13 | 93 | 1005.7 |
| 20260506190334 | 16 | 332 | 0.0 | 0.0 | 0.00 | 0.13 | 0.13 | 93 | 1005.5 |
| 20260506185831 | 15 | 335 | 0.0 | 0.0 | 0.00 | 0.13 | 0.13 | 93 | 1005.6 |
| 20260506185328 | 15 | 344 | 0.0 | 0.0 | 0.00 | 0.13 | 0.13 | 93 | 1005.9 |
| 20260506184825 | 16 | 343 | 0.0 | 0.0 | 0.00 | 0.13 | 0.13 | 93 | 1005.8 |
| 20260506184323 | 16 | 334 | 0.0 | 0.0 | 0.00 | 0.13 | 0.13 | 94 | 1006.4 |
| 20260506183820 | 16 | 334 | 0.0 | 0.0 | 0.00 | 0.13 | 0.13 | 93 | 1006.2 |
| 20260506183315 | 16 | 339 | 0.0 | 1.6 | 0.00 | 0.13 | 0.13 | 93 | 1006.3 |
| 20260506182812 | 15 | 339 | 0.0 | 0.0 | 0.00 | 0.13 | 0.13 | 93 | 1006.5 |
| 20260506182310 | 16 | 342 | 0.0 | 0.0 | 0.13 | 0.13 | 0.13 | 93 | 1006.6 |
| 20260506181808 | 16 | 329 | 0.0 | 0.0 | 0.13 | 0.13 | 0.13 | 93 | 1007.0 |
| 20260506181305 | 16 | 334 | 1.6 | 1.6 | 0.00 | 0.10 | 0.10 | 93 | 1006.7 |
| 20260506180802 | 16 | 334 | 0.0 | 0.0 | 0.18 | 0.10 | 0.10 | 92 | 1006.7 |
| 20260506180257 | 16 | 334 | 0.0 | 0.0 | 0.30 | 0.10 | 0.10 | 92 | 1006.8 |
| 20260506175754 | 16 | 337 | 1.6 | 1.6 | 0.30 | 0.08 | 0.08 | 92 | 1007.0 |
| 20260506175251 | 16 | 330 | 0.0 | 0.0 | 0.18 | 0.05 | 0.05 | 91 | 1007.0 |
| 20260506174749 | 16 | 336 | 0.0 | 0.0 | 0.13 | 0.03 | 0.03 | 90 | 1007.0 |
| 20260506174245 | 16 | 311 | 1.6 | 1.6 | 0.13 | 0.03 | 0.03 | 89 | 1007.1 |
| 20260506173743 | 16 | 341 | 1.6 | 1.6 | 0.00 | 0.00 | 0.00 | 88 | 1007.1 |
| 20260506173240 | 17 | 307 | 1.6 | 3.2 | 0.00 | 0.00 | 0.00 | 85 | 1007.1 |
| 20260506172737 | 17 | 322 | 1.6 | 1.6 | 0.00 | 0.00 | 0.00 | 81 | 1007.2 |
| 20260506172233 | 18 | 338 | 3.2 | 3.2 | 0.00 | 0.00 | 0.00 | 79 | 1007.0 |
| 20260506171731 | 18 | 296 | 1.6 | 3.2 | 0.00 | 0.00 | 0.00 | 75 | 1006.9 |
| 20260506171228 | 18 | 139 | 3.2 | 8.0 | 0.00 | 0.00 | 0.00 | 73 | 1007.0 |
| 20260506170726 | 19 | 125 | 4.8 | 8.0 | 0.00 | 0.00 | 0.00 | 71 | 1006.9 |
| 20260506170222 | 19 | 334 | 3.2 | 3.2 | 0.00 | 0.00 | 0.00 | 70 | 1006.7 |
| 20260506165720 | 20 | 227 | 4.8 | 8.0 | 0.00 | 0.00 | 0.00 | 69 | 1007.1 |
| 20260506165217 | 20 | 240 | 4.8 | 8.0 | 0.00 | 0.00 | 0.00 | 68 | 1006.8 |
| 20260506164714 | 20 | 170 | 4.8 | 8.0 | 0.00 | 0.00 | 0.00 | 68 | 1006.8 |
| 20260506164211 | 20 | 261 | 4.8 | 8.0 | 0.00 | 0.00 | 0.00 | 67 | 1007.1 |
| 20260506163708 | 20 | 187 | 4.8 | 8.0 | 0.00 | 0.00 | 0.00 | 68 | 1006.7 |
| 20260506163203 | 20 | 73 | 3.2 | 3.2 | 0.00 | 0.00 | 0.00 | 68 | 1007.0 |
| 20260506162659 | 20 | 292 | 1.6 | 3.2 | 0.00 | 0.00 | 0.00 | 69 | 1006.9 |
| 20260506162157 | 20 | 321 | 3.2 | 4.8 | 0.00 | 0.00 | 0.00 | 69 | 1006.8 |